Time;durP1;ratioP1;P1;durP2;ratioP2;P2;SDS_P1;SDS_P2;PMS_P1;PMS_P2;Temp;Humidity;BMP_temperature;BMP_pressure;BME280_temperature;BME280_humidity;BME280_pressure;Samples;Min_cycle;Max_cycle;Signal;HPM_P1;HPM_P2
2023/05/26 00:02:10;;;;;;;;;;;;;;;14.51;58.75;101219.09;4968126;28;2093;-73
2023/05/26 00:04:36;;;;;;;;;;;;;;;14.46;58.99;101207.25;4968488;28;2099;-74
2023/05/26 00:07:03;;;;;;;;;;;;;;;14.53;58.54;101198.03;4972138;28;1749;-74
2023/05/26 00:09:30;;;;;;;;;;;;;;;14.40;58.60;101191.91;4942933;28;2100;-74
2023/05/26 00:11:56;;;;;;;;;;;;;;;14.60;57.53;101199.81;4945400;28;1492;-74
2023/05/26 00:14:23;;;;;;;;;;;;;;;14.58;58.00;101188.38;4944370;28;1601;-75
2023/05/26 00:16:49;;;;;;;;;;;;;;;14.47;58.31;101188.06;4948596;28;2177;-74
2023/05/26 00:19:17;;;;;;;;;;;;;;;14.40;58.54;101183.78;4945847;28;3358;-74
2023/05/26 00:21:44;;;;;;;;;;;;;;;14.43;58.37;101183.34;4946179;28;4288;-74
2023/05/26 00:24:10;;;;;;;;;;;;;;;14.44;58.00;101195.81;4946985;28;5091;-74
2023/05/26 00:26:37;;;;;;;;;;;;;;;14.46;57.84;101196.41;4951814;28;4511;-74
2023/05/26 00:29:03;;;;;;;;;;;;;;;14.57;57.71;101198.38;4943724;28;2124;-74
2023/05/26 00:31:30;;;;;;;;;;;;;;;14.64;57.62;101199.09;4950076;28;2322;-74
2023/05/26 00:33:56;;;;;;;;;;;;;;;14.37;57.91;101198.63;4947185;28;2256;-74
2023/05/26 00:36:23;;;;;;;;;;;;;;;14.46;57.96;101194.53;4944202;28;1563;-74
2023/05/26 00:38:49;;;;;;;;;;;;;;;14.37;58.31;101200.50;4960487;28;3334;-74
2023/05/26 00:41:16;;;;;;;;;;;;;;;14.31;57.60;101200.38;4946467;28;1851;-74
2023/05/26 00:43:43;;;;;;;;;;;;;;;14.29;58.01;101209.78;4944536;28;1545;-75
2023/05/26 00:46:09;;;;;;;;;;;;;;;14.38;57.76;101216.53;4932738;28;2163;-75
2023/05/26 00:48:36;;;;;;;;;;;;;;;14.44;57.57;101210.22;4939739;28;1675;-74
2023/05/26 00:51:02;;;;;;;;;;;;;;;14.31;57.66;101204.97;4929461;28;2191;-75
2023/05/26 00:53:29;;;;;;;;;;;;;;;14.25;57.73;101186.91;4946180;28;1768;-75
2023/05/26 00:55:56;;;;;;;;;;;;;;;14.31;57.03;101180.56;4943086;28;1960;-74
2023/05/26 00:58:22;;;;;;;;;;;;;;;14.24;57.08;101191.50;4931196;28;1918;-75
2023/05/26 01:00:49;;;;;;;;;;;;;;;14.28;57.81;101183.75;4932474;28;2103;-75
2023/05/26 01:03:16;;;;;;;;;;;;;;;14.30;57.47;101196.00;4957636;28;1605;-74
2023/05/26 01:05:43;;;;;;;;;;;;;;;14.23;57.63;101205.25;4929819;28;1697;-74
2023/05/26 01:08:09;;;;;;;;;;;;;;;14.18;57.54;101211.38;4957871;28;2082;-74
2023/05/26 01:10:36;;;;;;;;;;;;;;;14.20;57.67;101195.72;4945254;28;1665;-74
2023/05/26 01:13:03;;;;;;;;;;;;;;;14.37;57.24;101195.09;4946009;28;1828;-75
2023/05/26 01:15:29;;;;;;;;;;;;;;;13.77;57.48;101137.09;4946197;28;2357;-74
2023/05/26 01:17:56;;;;;;;;;;;;;;;14.12;57.65;101187.91;4936334;28;2142;-74
2023/05/26 01:20:22;;;;;;;;;;;;;;;14.10;57.47;101179.19;4955019;28;1982;-74
2023/05/26 01:22:50;;;;;;;;;;;;;;;14.08;57.57;101184.00;4936007;28;1784;-74
2023/05/26 01:25:16;;;;;;;;;;;;;;;14.07;57.68;101185.06;4952498;28;1899;-75
2023/05/26 01:27:43;;;;;;;;;;;;;;;14.22;57.43;101190.91;4945774;28;1759;-73
2023/05/26 01:30:10;;;;;;;;;;;;;;;14.14;57.33;101215.59;4954784;28;2149;-77
2023/05/26 01:32:36;;;;;;;;;;;;;;;14.22;57.10;101209.03;4947665;28;1707;-73
2023/05/26 01:35:03;;;;;;;;;;;;;;;14.15;57.68;101211.84;4938561;28;1489;-74
2023/05/26 01:37:29;;;;;;;;;;;;;;;14.08;57.71;101221.91;4945074;28;1933;-73
2023/05/26 01:39:56;;;;;;;;;;;;;;;14.06;58.01;101219.44;4943163;28;1950;-73
2023/05/26 01:42:23;;;;;;;;;;;;;;;14.21;57.52;101232.59;4944542;28;1611;-74
2023/05/26 01:44:49;;;;;;;;;;;;;;;14.11;57.59;101223.34;4951746;28;1804;-73
2023/05/26 01:47:16;;;;;;;;;;;;;;;14.07;57.82;101225.69;4966541;28;2036;-74
2023/05/26 01:49:42;;;;;;;;;;;;;;;14.05;57.89;101208.81;4963550;28;1578;-73
2023/05/26 01:52:10;;;;;;;;;;;;;;;13.99;57.53;101212.44;4946352;28;1537;-75
2023/05/26 01:54:36;;;;;;;;;;;;;;;13.98;57.84;101208.09;4935664;28;1583;-75
2023/05/26 01:57:03;;;;;;;;;;;;;;;13.97;57.90;101209.13;4923900;28;1987;-75
2023/05/26 01:59:30;;;;;;;;;;;;;;;13.97;57.90;101209.97;4948666;28;2157;-74
2023/05/26 02:01:56;;;;;;;;;;;;;;;13.99;57.58;101201.59;4950344;28;2148;-74
2023/05/26 02:04:23;;;;;;;;;;;;;;;13.94;57.72;101212.28;4969369;28;1972;-74
2023/05/26 02:06:50;;;;;;;;;;;;;;;13.95;57.53;101208.53;4951858;28;1985;-75
2023/05/26 02:09:17;;;;;;;;;;;;;;;13.93;57.52;101208.75;4969137;28;2435;-75
2023/05/26 02:11:43;;;;;;;;;;;;;;;13.92;57.46;101206.28;4964718;28;1564;-73
2023/05/26 02:14:10;;;;;;;;;;;;;;;13.93;57.51;101218.75;4946665;28;2176;-74
2023/05/26 02:16:37;;;;;;;;;;;;;;;13.97;57.76;101222.66;4941554;28;2335;-74
2023/05/26 02:19:03;;;;;;;;;;;;;;;13.95;57.99;101219.38;4946604;28;2071;-73
2023/05/26 02:21:30;;;;;;;;;;;;;;;13.92;58.02;101227.94;4948439;28;3527;-74
2023/05/26 02:23:57;;;;;;;;;;;;;;;13.87;58.07;101234.03;4949186;28;1573;-74
2023/05/26 02:26:23;;;;;;;;;;;;;;;13.87;57.96;101236.75;4940462;28;1529;-74
2023/05/26 02:28:50;;;;;;;;;;;;;;;13.86;58.21;101240.50;4948415;28;2051;-73
2023/05/26 02:31:17;;;;;;;;;;;;;;;13.87;57.79;101234.03;4949872;28;2148;-74
2023/05/26 02:33:44;;;;;;;;;;;;;;;13.82;57.81;101239.28;4945798;28;1931;-73
2023/05/26 02:36:11;;;;;;;;;;;;;;;13.79;57.84;101232.44;4952034;28;1903;-73
2023/05/26 02:38:37;;;;;;;;;;;;;;;13.81;57.66;101235.75;4955333;28;2051;-75
2023/05/26 02:41:04;;;;;;;;;;;;;;;13.81;57.51;101234.94;4948353;28;1736;-75
2023/05/26 02:43:30;;;;;;;;;;;;;;;13.82;57.72;101245.56;4945466;28;2059;-74
2023/05/26 02:45:57;;;;;;;;;;;;;;;13.78;57.88;101232.66;4948138;28;1755;-75
2023/05/26 02:48:23;;;;;;;;;;;;;;;13.77;57.77;101234.56;4946812;28;2058;-75
2023/05/26 02:50:50;;;;;;;;;;;;;;;13.76;57.60;101237.47;4957159;28;3931;-75
2023/05/26 02:53:18;;;;;;;;;;;;;;;13.75;57.37;101250.19;4948341;28;5137;-73
2023/05/26 02:55:45;;;;;;;;;;;;;;;13.79;57.64;101242.44;4946010;28;2178;-73
2023/05/26 02:58:12;;;;;;;;;;;;;;;13.75;57.31;101241.25;4927615;28;3755;-74
2023/05/26 03:00:39;;;;;;;;;;;;;;;13.74;57.52;101248.53;4929409;28;2144;-74
2023/05/26 03:03:06;;;;;;;;;;;;;;;13.74;57.63;101247.72;4945474;28;2138;-74
2023/05/26 03:05:33;;;;;;;;;;;;;;;13.73;57.57;101237.91;4936501;28;1699;-74
2023/05/26 03:07:59;;;;;;;;;;;;;;;13.71;57.59;101246.28;4964896;28;2068;-74
2023/05/26 03:10:26;;;;;;;;;;;;;;;13.70;57.81;101251.91;4935048;28;3655;-72
2023/05/26 03:12:52;;;;;;;;;;;;;;;13.73;57.44;101237.91;4946550;28;2369;-74
2023/05/26 03:15:19;;;;;;;;;;;;;;;13.74;57.47;101248.53;4936014;28;2044;-74
2023/05/26 03:17:45;;;;;;;;;;;;;;;13.72;57.43;101247.09;4943294;28;2003;-74
2023/05/26 03:20:12;;;;;;;;;;;;;;;13.66;57.51;101240.69;4938541;28;1989;-75
2023/05/26 03:22:39;;;;;;;;;;;;;;;13.65;57.74;101244.47;4937799;28;1753;-74
2023/05/26 03:25:05;;;;;;;;;;;;;;;13.64;57.48;101235.50;4942059;28;1750;-74
2023/05/26 03:27:32;;;;;;;;;;;;;;;13.66;57.53;101240.69;4947901;28;2118;-74
2023/05/26 03:29:58;;;;;;;;;;;;;;;13.68;57.40;101244.03;4960423;28;2067;-74
2023/05/26 03:32:25;;;;;;;;;;;;;;;13.61;57.64;101243.25;4941345;28;2009;-75
2023/05/26 03:34:51;;;;;;;;;;;;;;;13.66;57.67;101248.81;4952137;28;1778;-75
2023/05/26 03:37:18;;;;;;;;;;;;;;;13.64;57.27;101245.50;4958318;28;1978;-74
2023/05/26 03:39:45;;;;;;;;;;;;;;;13.59;57.62;101240.78;4962044;28;2091;-73
2023/05/26 03:42:11;;;;;;;;;;;;;;;13.20;57.69;101185.09;4940085;28;1553;-76
2023/05/26 03:44:38;;;;;;;;;;;;;;;13.57;57.72;101256.41;4944913;28;2168;-73
2023/05/26 03:47:04;;;;;;;;;;;;;;;13.59;57.40;101253.50;4944757;28;2221;-75
2023/05/26 03:49:31;;;;;;;;;;;;;;;13.56;57.43;101264.72;4935453;28;1546;-76
2023/05/26 03:51:58;;;;;;;;;;;;;;;13.54;57.60;101267.66;4945850;28;1796;-75
2023/05/26 03:54:24;;;;;;;;;;;;;;;13.56;57.40;101268.28;4952398;28;1769;-73
2023/05/26 03:56:51;;;;;;;;;;;;;;;13.58;57.67;101279.69;4946429;28;1819;-75
2023/05/26 03:59:18;;;;;;;;;;;;;;;13.56;57.57;101280.97;4943007;28;1965;-73
2023/05/26 04:01:44;;;;;;;;;;;;;;;13.54;57.54;101278.50;4945925;28;2204;-75
2023/05/26 04:04:33;;;;;;;;;;;;;;;13.58;57.56;101293.22;4944724;28;2018;-75
2023/05/26 04:10:17;;;;;;;;;;;;;;;13.53;57.71;101301.19;4919148;28;3959;-74
2023/05/26 04:12:44;;;;;;;;;;;;;;;13.54;57.76;101312.84;4894690;29;1768;-74
2023/05/26 04:15:10;;;;;;;;;;;;;;;13.54;57.55;101302.84;4896170;29;2068;-74
2023/05/26 04:17:37;;;;;;;;;;;;;;;13.53;57.62;101294.94;4909408;29;1965;-72
2023/05/26 04:20:05;;;;;;;;;;;;;;;13.49;57.82;101299.97;4905421;29;2344;-74
2023/05/26 04:22:32;;;;;;;;;;;;;;;13.48;57.40;101302.91;4910850;29;1929;-76
2023/05/26 04:24:58;;;;;;;;;;;;;;;13.48;57.54;101303.75;4913931;29;1669;-74
2023/05/26 04:27:25;;;;;;;;;;;;;;;13.49;57.60;101294.56;4922619;28;2049;-73
2023/05/26 04:29:52;;;;;;;;;;;;;;;13.45;57.80;101297.94;4900931;29;2192;-74
2023/05/26 04:32:20;;;;;;;;;;;;;;;13.43;57.51;101297.31;4909902;29;2264;-73
2023/05/26 04:34:46;;;;;;;;;;;;;;;13.42;57.76;101296.50;4915143;29;1492;-73
2023/05/26 04:37:14;;;;;;;;;;;;;;;13.43;57.73;101300.03;4930704;29;2091;-75
2023/05/26 04:39:40;;;;;;;;;;;;;;;13.42;57.71;101304.63;4923448;29;2122;-75
2023/05/26 04:42:07;;;;;;;;;;;;;;;13.40;57.45;101307.53;4910531;29;1610;-76
2023/05/26 04:44:36;;;;;;;;;;;;;;;13.42;57.42;101310.03;4909373;29;2141;-75
2023/05/26 04:47:03;;;;;;;;;;;;;;;13.44;57.54;101315.22;4921306;28;2173;-73
2023/05/26 04:49:30;;;;;;;;;;;;;;;13.41;57.34;101313.75;4911272;29;1664;-74
2023/05/26 04:51:56;;;;;;;;;;;;;;;13.40;57.63;101304.81;4908866;29;1602;-74
2023/05/26 04:54:23;;;;;;;;;;;;;;;13.43;57.39;101314.38;4904858;29;1551;-74
2023/05/26 04:56:49;;;;;;;;;;;;;;;13.38;57.47;101315.06;4932656;29;2387;-76
2023/05/26 04:59:17;;;;;;;;;;;;;;;13.38;57.51;101325.88;4934965;29;2216;-75
2023/05/26 05:01:44;;;;;;;;;;;;;;;13.41;57.48;101324.59;4931482;29;2136;-73
2023/05/26 05:04:10;;;;;;;;;;;;;;;13.40;57.34;101318.34;4924246;29;1941;-74
2023/05/26 05:06:37;;;;;;;;;;;;;;;13.38;57.43;101325.03;4933886;29;1875;-75
2023/05/26 05:09:03;;;;;;;;;;;;;;;13.38;57.35;101325.88;4933769;29;1637;-74
2023/05/26 05:11:30;;;;;;;;;;;;;;;13.37;57.44;101331.50;4934440;29;1696;-75
2023/05/26 05:13:56;;;;;;;;;;;;;;;13.35;57.39;101328.19;4914061;29;1855;-75
2023/05/26 05:16:23;;;;;;;;;;;;;;;13.35;57.46;101330.88;4904072;29;2180;-76
2023/05/26 05:18:49;;;;;;;;;;;;;;;13.33;57.50;101336.53;4932434;29;1712;-75
2023/05/26 05:21:16;;;;;;;;;;;;;;;13.37;57.16;101337.72;4934028;29;4805;-74
2023/05/26 05:23:42;;;;;;;;;;;;;;;13.34;57.35;101345.47;4935052;29;4785;-74
2023/05/26 05:26:09;;;;;;;;;;;;;;;13.31;57.25;101351.31;4916937;29;2059;-75
2023/05/26 05:28:36;;;;;;;;;;;;;;;13.32;57.59;101355.66;4932134;29;4025;-75
2023/05/26 05:31:02;;;;;;;;;;;;;;;13.31;57.10;101360.25;4930506;29;1879;-74
2023/05/26 05:33:29;;;;;;;;;;;;;;;13.32;57.31;101358.38;4934841;29;1822;-75
2023/05/26 05:35:55;;;;;;;;;;;;;;;13.30;57.10;101355.91;4931736;29;1967;-75
2023/05/26 05:38:22;;;;;;;;;;;;;;;13.29;57.40;101356.94;4925818;29;1704;-73
2023/05/26 05:40:48;;;;;;;;;;;;;;;13.29;57.13;101361.50;4923575;29;3597;-75
2023/05/26 05:43:15;;;;;;;;;;;;;;;13.28;57.53;101359.88;4932630;29;2238;-75
2023/05/26 05:45:41;;;;;;;;;;;;;;;13.27;56.87;101360.94;4929438;29;1962;-74
2023/05/26 05:48:08;;;;;;;;;;;;;;;13.26;57.24;101367.38;4934141;29;2033;-74
2023/05/26 05:50:34;;;;;;;;;;;;;;;13.26;56.89;101367.38;4934350;29;2116;-76
2023/05/26 05:53:01;;;;;;;;;;;;;;;13.25;57.37;101365.69;4928760;29;2251;-74
2023/05/26 05:55:27;;;;;;;;;;;;;;;13.28;56.88;101368.81;4933519;29;1778;-73
2023/05/26 05:57:54;;;;;;;;;;;;;;;13.26;57.33;101375.47;4930753;29;1982;-75
2023/05/26 06:00:21;;;;;;;;;;;;;;;13.25;57.14;101371.94;4932513;29;2319;-74
2023/05/26 06:02:47;;;;;;;;;;;;;;;13.25;57.01;101369.25;4935246;29;936;-74
2023/05/26 06:05:14;;;;;;;;;;;;;;;13.25;56.99;101380.06;4931208;29;1979;-74
2023/05/26 06:07:40;;;;;;;;;;;;;;;13.25;57.09;101384.63;4918914;29;2347;-75
2023/05/26 06:10:07;;;;;;;;;;;;;;;13.25;57.13;101390.03;4903322;29;3278;-74
2023/05/26 06:12:33;;;;;;;;;;;;;;;13.23;57.02;101392.94;4909539;29;2272;-73
2023/05/26 06:15:00;;;;;;;;;;;;;;;13.23;57.33;101394.81;4911714;29;1612;-74
2023/05/26 06:17:26;;;;;;;;;;;;;;;13.24;56.87;101394.63;4911409;29;1695;-76
2023/05/26 06:19:53;;;;;;;;;;;;;;;13.29;56.91;101399.38;4910340;29;2057;-75
2023/05/26 06:22:19;;;;;;;;;;;;;;;13.26;56.91;101394.41;4919620;29;1561;-75
2023/05/26 06:24:46;;;;;;;;;;;;;;;13.23;56.90;101408.34;4912712;29;2034;-75
2023/05/26 06:27:12;;;;;;;;;;;;;;;13.22;56.99;101412.09;4896678;29;1522;-75
2023/05/26 06:29:39;;;;;;;;;;;;;;;13.25;56.92;101415.22;4913513;29;1679;-75
2023/05/26 06:32:06;;;;;;;;;;;;;;;13.23;57.13;101411.88;4912138;29;2054;-74
2023/05/26 06:34:32;;;;;;;;;;;;;;;13.23;56.95;101419.16;4916768;29;1609;-75
2023/05/26 06:36:59;;;;;;;;;;;;;;;13.20;57.16;101420.41;4913162;29;2004;-74
2023/05/26 06:39:25;;;;;;;;;;;;;;;13.22;56.85;101422.94;4903672;29;1989;-74
2023/05/26 06:41:52;;;;;;;;;;;;;;;13.21;57.02;101429.34;4931167;29;1888;-74
2023/05/26 06:44:18;;;;;;;;;;;;;;;12.72;57.04;101353.25;4914044;29;1852;-74
2023/05/26 06:46:45;;;;;;;;;;;;;;;13.20;56.93;101433.94;4910899;29;1688;-75
2023/05/26 06:49:11;;;;;;;;;;;;;;;13.17;57.05;101443.31;4932249;29;1992;-75
2023/05/26 06:51:38;;;;;;;;;;;;;;;13.21;56.86;101430.22;4933248;29;1560;-74
2023/05/26 06:54:04;;;;;;;;;;;;;;;13.19;56.95;101437.69;4918209;29;1644;-75
2023/05/26 06:56:31;;;;;;;;;;;;;;;13.16;56.91;101441.66;4918158;29;1940;-75
2023/05/26 06:58:57;;;;;;;;;;;;;;;13.17;56.78;101443.31;4918756;29;1627;-75
2023/05/26 07:01:24;;;;;;;;;;;;;;;13.17;56.75;101453.31;4930946;29;1943;-75
2023/05/26 07:03:51;;;;;;;;;;;;;;;13.21;56.78;101454.56;4925101;29;1853;-75
2023/05/26 07:06:17;;;;;;;;;;;;;;;13.18;57.05;101457.69;4933107;29;1590;-75
2023/05/26 07:08:44;;;;;;;;;;;;;;;13.20;57.05;101461.00;4924779;29;2037;-75
2023/05/26 07:11:10;;;;;;;;;;;;;;;13.25;56.64;101473.88;4918801;29;909;-74
2023/05/26 07:13:37;;;;;;;;;;;;;;;13.23;56.59;101465.16;4917779;29;2075;-75
2023/05/26 07:16:03;;;;;;;;;;;;;;;13.19;56.88;101478.28;4914220;29;2157;-74
2023/05/26 07:18:30;;;;;;;;;;;;;;;13.16;56.81;101466.00;4913976;29;2064;-74
2023/05/26 07:20:56;;;;;;;;;;;;;;;13.17;56.98;101474.94;4916646;29;2083;-74
2023/05/26 07:23:23;;;;;;;;;;;;;;;13.17;56.80;101480.34;4914795;29;1767;-75
2023/05/26 07:25:49;;;;;;;;;;;;;;;13.16;56.68;101481.41;4917585;29;1592;-75
2023/05/26 07:28:16;;;;;;;;;;;;;;;13.17;56.73;101474.94;4902477;29;1767;-75
2023/05/26 07:30:42;;;;;;;;;;;;;;;13.16;56.65;101490.34;4892890;29;1873;-75
2023/05/26 07:33:09;;;;;;;;;;;;;;;13.14;56.57;101486.19;4905364;29;3740;-75
2023/05/26 07:35:35;;;;;;;;;;;;;;;13.17;56.62;101480.34;4901055;29;4676;-75
2023/05/26 07:38:03;;;;;;;;;;;;;;;13.17;56.67;101491.19;4904815;29;2235;-74
2023/05/26 07:40:34;;;;;;;;;;;;;;;13.14;56.86;101487.03;4914803;29;3054;-75
2023/05/26 07:43:00;;;;;;;;;;;;;;;13.14;56.55;101480.78;4896889;29;2044;-75
2023/05/26 07:45:27;;;;;;;;;;;;;;;13.13;56.67;101485.38;4913087;29;4021;-75
2023/05/26 07:47:53;;;;;;;;;;;;;;;13.14;56.58;101480.78;4916363;29;3760;-75
2023/05/26 07:50:20;;;;;;;;;;;;;;;13.14;56.46;101488.91;4906261;29;1729;-74
2023/05/26 07:52:47;;;;;;;;;;;;;;;13.16;56.66;101486.81;4909309;29;4751;-76
2023/05/26 07:55:14;;;;;;;;;;;;;;;13.15;56.81;101488.69;4915505;29;1647;-75
2023/05/26 07:57:40;;;;;;;;;;;;;;;13.16;56.50;101505.75;4909058;29;3890;-74
2023/05/26 08:00:07;;;;;;;;;;;;;;;13.15;56.81;101494.13;4909336;29;1915;-74
2023/05/26 08:02:35;;;;;;;;;;;;;;;13.14;56.68;101500.53;4918238;29;1320;-75
2023/05/26 08:05:01;;;;;;;;;;;;;;;13.15;56.70;101504.09;4908063;29;1634;-77
2023/05/26 08:07:28;;;;;;;;;;;;;;;13.15;56.83;101507.63;4901349;29;1647;-76
2023/05/26 08:09:55;;;;;;;;;;;;;;;13.16;56.61;101508.47;4917163;29;3850;-76
2023/05/26 08:12:21;;;;;;;;;;;;;;;13.15;56.74;101515.75;4920179;29;1717;-75
2023/05/26 08:14:48;;;;;;;;;;;;;;;13.16;56.63;101505.75;4919779;29;1646;-76
2023/05/26 08:17:14;;;;;;;;;;;;;;;13.16;56.63;101505.75;4904505;29;1967;-75
2023/05/26 08:19:41;;;;;;;;;;;;;;;13.16;56.70;101511.16;4916141;29;1592;-76
2023/05/26 08:22:07;;;;;;;;;;;;;;;13.18;56.73;101519.91;4918508;29;1918;-77
2023/05/26 08:24:34;;;;;;;;;;;;;;;13.18;56.67;101528.03;4919787;29;1684;-76
2023/05/26 08:27:00;;;;;;;;;;;;;;;13.18;56.50;101528.03;4929229;29;1786;-75
2023/05/26 08:29:27;;;;;;;;;;;;;;;13.19;56.64;101530.50;4921389;29;1642;-75
2023/05/26 08:31:54;;;;;;;;;;;;;;;13.18;56.59;101525.31;4917987;29;1622;-75
2023/05/26 08:34:20;;;;;;;;;;;;;;;13.19;56.87;101524.25;4918382;29;1883;-75
2023/05/26 08:36:47;;;;;;;;;;;;;;;13.18;56.50;101514.50;4927061;29;1682;-76
2023/05/26 08:39:13;;;;;;;;;;;;;;;13.17;56.91;101524.47;4934922;29;1730;-75
2023/05/26 08:41:40;;;;;;;;;;;;;;;13.17;56.67;101529.03;4908791;29;4164;-75
2023/05/26 08:44:06;;;;;;;;;;;;;;;13.19;56.69;101533.19;4916991;29;3551;-75
2023/05/26 08:46:33;;;;;;;;;;;;;;;13.19;56.70;101525.09;4920897;29;3667;-77
2023/05/26 08:48:59;;;;;;;;;;;;;;;13.23;56.46;101522.78;4919756;29;1621;-77
2023/05/26 08:51:26;;;;;;;;;;;;;;;13.22;56.59;101520.31;4918270;29;1871;-75
2023/05/26 08:53:52;;;;;;;;;;;;;;;13.23;56.67;101522.78;4922096;29;1730;-76
2023/05/26 08:56:19;;;;;;;;;;;;;;;13.24;56.43;101527.16;4923656;29;2726;-74
2023/05/26 08:58:46;;;;;;;;;;;;;;;13.22;56.52;101521.13;4930065;29;3630;-77
2023/05/26 09:01:13;;;;;;;;;;;;;;;13.23;56.54;101522.78;4923097;29;1907;-76
2023/05/26 09:03:39;;;;;;;;;;;;;;;13.26;56.84;101521.56;4931071;29;1672;-75
2023/05/26 09:06:06;;;;;;;;;;;;;;;13.23;56.60;101527.38;4935829;29;1065;-75
2023/05/26 09:08:32;;;;;;;;;;;;;;;13.21;56.78;101522.19;4935185;29;1774;-76
2023/05/26 09:10:59;;;;;;;;;;;;;;;13.23;56.67;101516.53;4933294;29;1428;-75
2023/05/26 09:13:26;;;;;;;;;;;;;;;13.21;56.72;101518.63;4919042;29;956;-76
2023/05/26 09:15:53;;;;;;;;;;;;;;;13.21;56.69;101524.88;4933242;29;1496;-76
2023/05/26 09:18:19;;;;;;;;;;;;;;;13.22;56.77;101531.94;4936305;29;1021;-75
2023/05/26 09:20:46;;;;;;;;;;;;;;;13.22;56.96;101542.78;4933371;29;1973;-76
2023/05/26 09:23:12;;;;;;;;;;;;;;;13.22;56.95;101536.53;4935632;29;1570;-77
2023/05/26 09:25:40;;;;;;;;;;;;;;;13.24;57.03;101539.88;4935281;29;1001;-75
2023/05/26 09:28:07;;;;;;;;;;;;;;;13.26;56.88;101540.50;4934415;29;1703;-76
2023/05/26 09:30:33;;;;;;;;;;;;;;;13.24;56.92;101538.00;4934113;29;1754;-76
2023/05/26 09:33:00;;;;;;;;;;;;;;;13.25;57.09;101542.38;4931835;29;1539;-74
2023/05/26 09:35:26;;;;;;;;;;;;;;;13.25;56.95;101539.66;4934433;29;1634;-76
2023/05/26 09:37:53;;;;;;;;;;;;;;;13.26;56.69;101541.31;4935189;29;1147;-73
2023/05/26 09:40:19;;;;;;;;;;;;;;;13.27;57.05;101528.66;4932623;29;2060;-74
2023/05/26 09:42:46;;;;;;;;;;;;;;;13.27;56.93;101534.88;4934927;29;1080;-75
2023/05/26 09:45:12;;;;;;;;;;;;;;;13.27;56.81;101540.28;4916157;29;1360;-74
2023/05/26 09:47:39;;;;;;;;;;;;;;;13.25;56.97;101542.38;4915537;29;1385;-74
2023/05/26 09:50:06;;;;;;;;;;;;;;;13.24;56.37;101527.16;4929940;29;1606;-77
2023/05/26 09:52:32;;;;;;;;;;;;;;;13.25;56.86;101539.66;4933775;29;1455;-76
2023/05/26 09:54:59;;;;;;;;;;;;;;;13.26;56.88;101537.78;4917854;29;1000;-74
2023/05/26 09:57:25;;;;;;;;;;;;;;;13.25;56.72;101536.97;4932587;29;1373;-74
2023/05/26 09:59:52;;;;;;;;;;;;;;;13.28;56.76;101538.41;4932937;29;1453;-76
2023/05/26 10:02:19;;;;;;;;;;;;;;;13.28;57.06;101530.31;4934060;29;1914;-75
2023/05/26 10:04:45;;;;;;;;;;;;;;;13.30;56.70;101536.34;4934763;29;1103;-74
2023/05/26 10:07:12;;;;;;;;;;;;;;;13.31;57.05;101538.00;4932294;29;1894;-75
2023/05/26 10:09:38;;;;;;;;;;;;;;;13.30;56.81;101541.75;4933371;29;1864;-77
2023/05/26 10:12:05;;;;;;;;;;;;;;;13.30;56.77;101556.09;4933575;29;1078;-75
2023/05/26 10:14:31;;;;;;;;;;;;;;;13.32;56.96;101545.03;4932266;29;2219;-75
2023/05/26 10:16:58;;;;;;;;;;;;;;;13.32;57.06;101551.28;4934227;29;1029;-75
2023/05/26 10:19:25;;;;;;;;;;;;;;;13.33;56.84;101547.56;4932969;29;1215;-74
2023/05/26 10:21:51;;;;;;;;;;;;;;;13.34;56.22;101546.50;4931838;29;4842;-73
2023/05/26 10:24:18;;;;;;;;;;;;;;;13.34;56.74;101542.97;4927617;29;3859;-76
2023/05/26 10:26:44;;;;;;;;;;;;;;;13.35;57.01;101537.34;4919237;29;1757;-73
2023/05/26 10:29:11;;;;;;;;;;;;;;;13.36;56.87;101539.00;4936121;29;4231;-73
2023/05/26 10:31:40;;;;;;;;;;;;;;;13.36;56.90;101536.31;4937393;29;1504;-74
2023/05/26 10:34:06;;;;;;;;;;;;;;;13.38;56.88;101553.16;4938726;29;997;-73
2023/05/26 10:36:34;;;;;;;;;;;;;;;13.39;57.11;101546.69;4920757;29;1076;-75
2023/05/26 10:39:00;;;;;;;;;;;;;;;13.40;56.70;101539.41;4938395;29;1095;-75
2023/05/26 10:41:27;;;;;;;;;;;;;;;13.40;56.84;101534.00;4937555;29;1982;-75
2023/05/26 10:43:53;;;;;;;;;;;;;;;13.42;56.47;101545.44;4937053;29;1350;-75
2023/05/26 10:46:20;;;;;;;;;;;;;;;13.40;56.85;101548.34;4936543;29;1110;-75
2023/05/26 10:48:46;;;;;;;;;;;;;;;13.42;56.80;101542.72;4939072;29;1015;-75
2023/05/26 10:51:13;;;;;;;;;;;;;;;13.44;56.94;101537.09;4935801;29;1830;-74
2023/05/26 10:53:40;;;;;;;;;;;;;;;13.43;57.28;101525.44;4936717;29;1588;-75
2023/05/26 10:56:08;;;;;;;;;;;;;;;13.44;57.31;101527.09;4937578;29;1342;-75
2023/05/26 10:58:34;;;;;;;;;;;;;;;13.45;57.00;101531.47;4938000;29;997;-75
2023/05/26 11:01:01;;;;;;;;;;;;;;;13.46;56.99;101522.31;4936610;29;1915;-75
2023/05/26 11:03:27;;;;;;;;;;;;;;;13.47;57.33;101518.56;4938095;29;1038;-74
2023/05/26 11:05:54;;;;;;;;;;;;;;;13.47;57.41;101529.41;4936380;29;1277;-75
2023/05/26 11:08:21;;;;;;;;;;;;;;;13.48;57.08;101524.81;4930586;29;1970;-76
2023/05/26 11:10:47;;;;;;;;;;;;;;;13.49;56.91;101523.75;4919174;29;1073;-74
2023/05/26 11:13:14;;;;;;;;;;;;;;;13.49;56.96;101518.34;4918405;29;1532;-74
2023/05/26 11:15:40;;;;;;;;;;;;;;;13.51;57.45;101521.66;4917850;29;1358;-76
2023/05/26 11:18:07;;;;;;;;;;;;;;;13.51;56.00;101522.50;4918988;29;959;-76
2023/05/26 11:20:34;;;;;;;;;;;;;;;13.52;55.76;101521.44;4917968;29;1286;-74
2023/05/26 11:23:00;;;;;;;;;;;;;;;13.53;56.16;101522.25;4901519;29;1985;-74
2023/05/26 11:25:27;;;;;;;;;;;;;;;13.52;55.17;101524.16;4918555;29;1143;-74
2023/05/26 11:27:54;;;;;;;;;;;;;;;13.53;56.25;101523.13;4917895;29;1089;-74
2023/05/26 11:30:20;;;;;;;;;;;;;;;13.55;57.02;101522.88;4916864;29;1385;-74
2023/05/26 11:32:47;;;;;;;;;;;;;;;13.56;57.17;101519.13;4918084;29;1005;-75
2023/05/26 11:35:13;;;;;;;;;;;;;;;13.56;57.16;101519.97;4917675;29;1048;-75
2023/05/26 11:37:40;;;;;;;;;;;;;;;13.56;57.27;101525.41;4918169;29;1018;-75
2023/05/26 11:40:06;;;;;;;;;;;;;;;13.56;56.51;101525.41;4918436;29;1013;-75
2023/05/26 11:42:33;;;;;;;;;;;;;;;13.57;56.66;101524.34;4918753;29;1977;-75
2023/05/26 11:45:00;;;;;;;;;;;;;;;13.60;56.92;101528.50;4899153;29;1513;-74
2023/05/26 11:47:26;;;;;;;;;;;;;;;13.59;56.79;101532.25;4916446;29;1390;-75
2023/05/26 11:49:53;;;;;;;;;;;;;;;13.59;55.84;101526.84;4917882;29;1755;-75
2023/05/26 11:52:22;;;;;;;;;;;;;;;13.60;54.51;101526.63;4917861;29;992;-74
2023/05/26 11:54:49;;;;;;;;;;;;;;;13.61;54.42;101532.84;4917524;29;1207;-76
2023/05/26 11:57:16;;;;;;;;;;;;;;;13.61;54.71;101530.97;4917676;29;1056;-77
2023/05/26 11:59:42;;;;;;;;;;;;;;;13.63;55.46;101526.19;4916003;29;1343;-76
2023/05/26 12:02:10;;;;;;;;;;;;;;;13.64;55.85;101533.25;4918023;29;1935;-75
2023/05/26 12:04:36;;;;;;;;;;;;;;;13.65;56.27;101534.09;4917552;29;1013;-75
2023/05/26 12:07:03;;;;;;;;;;;;;;;13.66;56.41;101537.63;4917979;29;1035;-75
2023/05/26 12:09:30;;;;;;;;;;;;;;;13.66;55.22;101543.03;4927059;29;1836;-74
2023/05/26 12:11:57;;;;;;;;;;;;;;;13.66;55.41;101546.56;4935215;29;1291;-74
2023/05/26 12:14:23;;;;;;;;;;;;;;;13.68;56.00;101536.38;4934668;29;1396;-73
2023/05/26 12:16:51;;;;;;;;;;;;;;;13.69;56.05;101540.72;4936085;29;1364;-74
2023/05/26 12:19:18;;;;;;;;;;;;;;;13.68;56.35;101539.06;4936385;29;1292;-73
2023/05/26 12:21:44;;;;;;;;;;;;;;;13.70;55.71;101550.50;4936526;29;1982;-76
2023/05/26 12:24:11;;;;;;;;;;;;;;;13.71;55.53;101543.22;4935207;29;1385;-75
2023/05/26 12:26:37;;;;;;;;;;;;;;;13.72;56.26;101548.41;4936180;29;1064;-75
2023/05/26 12:29:04;;;;;;;;;;;;;;;13.72;55.93;101550.31;4934047;29;1341;-75
2023/05/26 12:31:30;;;;;;;;;;;;;;;13.74;56.22;101546.34;4936453;29;1013;-74
2023/05/26 12:33:57;;;;;;;;;;;;;;;13.74;55.91;101535.50;4936485;29;1041;-74
2023/05/26 12:36:24;;;;;;;;;;;;;;;13.76;56.03;101536.09;4932207;29;1376;-74
2023/05/26 12:38:50;;;;;;;;;;;;;;;13.75;56.11;101533.63;4934693;29;1422;-73
2023/05/26 12:41:17;;;;;;;;;;;;;;;13.79;56.50;101540.25;4935976;29;1911;-74
2023/05/26 12:43:43;;;;;;;;;;;;;;;13.79;56.33;101532.13;4935478;29;1357;-75
2023/05/26 12:46:11;;;;;;;;;;;;;;;13.81;56.70;101538.16;4935074;29;1374;-74
2023/05/26 12:48:37;;;;;;;;;;;;;;;13.81;56.67;101530.03;4935724;29;1510;-75